sensor_id;sensor_type;location;lat;lon;timestamp;temperature;humidity
28725;DHT22;43472;48.980;9.646;2023-03-31T00:00:02;9.60;99.90
28725;DHT22;43472;48.980;9.646;2023-03-31T00:05:12;9.70;99.90
28725;DHT22;43472;48.980;9.646;2023-03-31T00:10:18;9.50;99.90
28725;DHT22;43472;48.980;9.646;2023-03-31T00:15:21;9.40;99.90
28725;DHT22;43472;48.980;9.646;2023-03-31T00:20:23;9.40;99.90
28725;DHT22;43472;48.980;9.646;2023-03-31T00:25:25;9.60;99.90
28725;DHT22;43472;48.980;9.646;2023-03-31T00:30:27;9.60;99.90
28725;DHT22;43472;48.980;9.646;2023-03-31T00:35:28;9.70;99.90
28725;DHT22;43472;48.980;9.646;2023-03-31T00:40:31;9.80;99.90
28725;DHT22;43472;48.980;9.646;2023-03-31T00:45:33;9.70;99.90
28725;DHT22;43472;48.980;9.646;2023-03-31T00:50:40;9.70;99.90
28725;DHT22;43472;48.980;9.646;2023-03-31T00:55:52;9.70;99.90
28725;DHT22;43472;48.980;9.646;2023-03-31T01:00:56;9.50;99.90
28725;DHT22;43472;48.980;9.646;2023-03-31T01:06:04;9.50;99.90
28725;DHT22;43472;48.980;9.646;2023-03-31T01:11:09;9.40;99.90
28725;DHT22;43472;48.980;9.646;2023-03-31T01:16:12;9.40;99.90
28725;DHT22;43472;48.980;9.646;2023-03-31T01:21:23;10.40;99.90
28725;DHT22;43472;48.980;9.646;2023-03-31T01:26:53;10.00;99.90
28725;DHT22;43472;48.980;9.646;2023-03-31T01:43:03;9.70;99.90
28725;DHT22;43472;48.980;9.646;2023-03-31T01:48:15;9.60;99.90
28725;DHT22;43472;48.980;9.646;2023-03-31T01:53:50;9.60;99.90
28725;DHT22;43472;48.980;9.646;2023-03-31T01:59:02;9.70;99.90
28725;DHT22;43472;48.980;9.646;2023-03-31T02:04:26;9.60;99.90
28725;DHT22;43472;48.980;9.646;2023-03-31T02:09:37;9.70;99.90
28725;DHT22;43472;48.980;9.646;2023-03-31T02:14:45;9.70;99.90
28725;DHT22;43472;48.980;9.646;2023-03-31T02:19:50;9.60;99.90
28725;DHT22;43472;48.980;9.646;2023-03-31T02:24:54;9.90;99.90
28725;DHT22;43472;48.980;9.646;2023-03-31T02:29:56;9.90;99.90
28725;DHT22;43472;48.980;9.646;2023-03-31T02:35:00;9.90;99.90
28725;DHT22;43472;48.980;9.646;2023-03-31T02:40:06;9.90;99.90
28725;DHT22;43472;48.980;9.646;2023-03-31T02:45:43;10.00;99.90
28725;DHT22;43472;48.980;9.646;2023-03-31T03:17:51;10.80;99.90
28725;DHT22;43472;48.980;9.646;2023-03-31T03:22:54;10.90;99.90
28725;DHT22;43472;48.980;9.646;2023-03-31T03:27:55;10.90;99.90
28725;DHT22;43472;48.980;9.646;2023-03-31T03:32:58;10.90;99.90
28725;DHT22;43472;48.980;9.646;2023-03-31T03:38:00;10.80;99.90
28725;DHT22;43472;48.980;9.646;2023-03-31T03:43:01;10.50;99.90
28725;DHT22;43472;48.980;9.646;2023-03-31T03:48:03;10.80;99.90
28725;DHT22;43472;48.980;9.646;2023-03-31T03:53:06;10.60;99.90
28725;DHT22;43472;48.980;9.646;2023-03-31T03:58:08;10.70;99.90
28725;DHT22;43472;48.980;9.646;2023-03-31T04:03:10;10.60;99.90
28725;DHT22;43472;48.980;9.646;2023-03-31T04:08:12;10.40;99.90
28725;DHT22;43472;48.980;9.646;2023-03-31T04:13:15;10.50;99.90
28725;DHT22;43472;48.980;9.646;2023-03-31T04:18:17;10.40;99.90
28725;DHT22;43472;48.980;9.646;2023-03-31T04:23:23;10.40;99.90
28725;DHT22;43472;48.980;9.646;2023-03-31T04:28:27;10.20;99.90
28725;DHT22;43472;48.980;9.646;2023-03-31T04:33:35;10.30;99.90
28725;DHT22;43472;48.980;9.646;2023-03-31T04:38:40;10.50;99.90
28725;DHT22;43472;48.980;9.646;2023-03-31T04:43:42;10.10;99.90
28725;DHT22;43472;48.980;9.646;2023-03-31T04:48:44;10.10;99.90
28725;DHT22;43472;48.980;9.646;2023-03-31T04:53:46;10.20;99.90
28725;DHT22;43472;48.980;9.646;2023-03-31T04:58:48;8.30;99.90
28725;DHT22;43472;48.980;9.646;2023-03-31T05:03:50;10.00;99.90
28725;DHT22;43472;48.980;9.646;2023-03-31T05:08:51;9.80;99.90
28725;DHT22;43472;48.980;9.646;2023-03-31T05:13:53;9.90;99.90
28725;DHT22;43472;48.980;9.646;2023-03-31T05:18:55;10.10;99.90
28725;DHT22;43472;48.980;9.646;2023-03-31T05:23:57;10.20;99.90
28725;DHT22;43472;48.980;9.646;2023-03-31T05:28:59;10.30;99.90
28725;DHT22;43472;48.980;9.646;2023-03-31T05:34:01;10.30;99.90
28725;DHT22;43472;48.980;9.646;2023-03-31T05:39:04;10.20;99.90
28725;DHT22;43472;48.980;9.646;2023-03-31T05:44:06;10.20;99.90
28725;DHT22;43472;48.980;9.646;2023-03-31T05:49:09;9.90;99.90
28725;DHT22;43472;48.980;9.646;2023-03-31T05:54:12;10.00;99.90
28725;DHT22;43472;48.980;9.646;2023-03-31T05:59:15;10.10;99.90
28725;DHT22;43472;48.980;9.646;2023-03-31T06:04:16;10.00;99.90
28725;DHT22;43472;48.980;9.646;2023-03-31T06:09:19;10.20;99.90
28725;DHT22;43472;48.980;9.646;2023-03-31T06:14:21;10.10;99.90
28725;DHT22;43472;48.980;9.646;2023-03-31T06:19:22;10.20;99.90
28725;DHT22;43472;48.980;9.646;2023-03-31T06:24:25;10.20;99.90
28725;DHT22;43472;48.980;9.646;2023-03-31T06:29:28;10.30;99.90
28725;DHT22;43472;48.980;9.646;2023-03-31T06:34:29;7.20;99.90
28725;DHT22;43472;48.980;9.646;2023-03-31T06:39:32;10.50;99.90
28725;DHT22;43472;48.980;9.646;2023-03-31T06:44:33;10.60;99.90
28725;DHT22;43472;48.980;9.646;2023-03-31T06:49:35;10.70;99.90
28725;DHT22;43472;48.980;9.646;2023-03-31T06:54:37;10.90;99.90
28725;DHT22;43472;48.980;9.646;2023-03-31T06:59:39;12.50;99.90
28725;DHT22;43472;48.980;9.646;2023-03-31T07:04:41;12.70;99.90
28725;DHT22;43472;48.980;9.646;2023-03-31T07:09:44;10.80;99.90
28725;DHT22;43472;48.980;9.646;2023-03-31T07:14:45;10.80;99.90
28725;DHT22;43472;48.980;9.646;2023-03-31T07:19:47;10.70;99.90
28725;DHT22;43472;48.980;9.646;2023-03-31T07:24:49;10.50;99.90
28725;DHT22;43472;48.980;9.646;2023-03-31T07:29:51;10.60;99.90
28725;DHT22;43472;48.980;9.646;2023-03-31T07:34:53;10.50;99.90
28725;DHT22;43472;48.980;9.646;2023-03-31T07:39:55;10.40;99.90
28725;DHT22;43472;48.980;9.646;2023-03-31T07:44:57;10.50;99.90
28725;DHT22;43472;48.980;9.646;2023-03-31T07:55:01;10.90;99.90
28725;DHT22;43472;48.980;9.646;2023-03-31T08:00:05;11.10;99.90
28725;DHT22;43472;48.980;9.646;2023-03-31T08:05:10;11.00;99.90
28725;DHT22;43472;48.980;9.646;2023-03-31T08:10:20;11.30;99.90
28725;DHT22;43472;48.980;9.646;2023-03-31T08:15:22;12.30;99.90
28725;DHT22;43472;48.980;9.646;2023-03-31T08:20:25;12.30;99.90
28725;DHT22;43472;48.980;9.646;2023-03-31T08:25:27;12.60;99.90
28725;DHT22;43472;48.980;9.646;2023-03-31T08:30:29;12.10;99.90
28725;DHT22;43472;48.980;9.646;2023-03-31T08:35:30;12.00;99.90
28725;DHT22;43472;48.980;9.646;2023-03-31T08:40:32;12.00;99.90
28725;DHT22;43472;48.980;9.646;2023-03-31T08:45:40;12.50;99.90
28725;DHT22;43472;48.980;9.646;2023-03-31T08:50:48;12.90;99.90
28725;DHT22;43472;48.980;9.646;2023-03-31T08:55:53;13.30;99.90
28725;DHT22;43472;48.980;9.646;2023-03-31T09:00:58;13.50;99.90
28725;DHT22;43472;48.980;9.646;2023-03-31T09:06:09;13.60;99.90
28725;DHT22;43472;48.980;9.646;2023-03-31T09:11:39;13.80;99.90
28725;DHT22;43472;48.980;9.646;2023-03-31T09:21:50;14.40;99.90
28725;DHT22;43472;48.980;9.646;2023-03-31T09:27:06;15.10;99.90
28725;DHT22;43472;48.980;9.646;2023-03-31T09:32:25;15.50;99.90
28725;DHT22;43472;48.980;9.646;2023-03-31T09:37:31;14.70;99.90
28725;DHT22;43472;48.980;9.646;2023-03-31T09:42:34;14.80;99.90
28725;DHT22;43472;48.980;9.646;2023-03-31T09:47:46;14.80;99.90
28725;DHT22;43472;48.980;9.646;2023-03-31T09:52:53;13.90;99.90
28725;DHT22;43472;48.980;9.646;2023-03-31T09:57:59;13.90;99.90
28725;DHT22;43472;48.980;9.646;2023-03-31T10:03:04;14.00;99.90
28725;DHT22;43472;48.980;9.646;2023-03-31T10:13:27;14.70;99.90
28725;DHT22;43472;48.980;9.646;2023-03-31T10:18:37;15.20;99.90
28725;DHT22;43472;48.980;9.646;2023-03-31T10:23:45;15.60;99.90
28725;DHT22;43472;48.980;9.646;2023-03-31T10:28:50;15.90;99.90
28725;DHT22;43472;48.980;9.646;2023-03-31T10:33:54;16.00;99.90
28725;DHT22;43472;48.980;9.646;2023-03-31T10:38:57;16.70;99.90
28725;DHT22;43472;48.980;9.646;2023-03-31T10:44:03;16.50;99.90
28725;DHT22;43472;48.980;9.646;2023-03-31T10:49:38;16.50;99.90
28725;DHT22;43472;48.980;9.646;2023-03-31T10:54:50;16.40;99.90
28725;DHT22;43472;48.980;9.646;2023-03-31T11:10:47;14.80;99.90
28725;DHT22;43472;48.980;9.646;2023-03-31T11:16:07;14.60;99.90
28725;DHT22;43472;48.980;9.646;2023-03-31T11:31:35;15.40;99.90
28725;DHT22;43472;48.980;9.646;2023-03-31T11:42:08;15.30;99.90
28725;DHT22;43472;48.980;9.646;2023-03-31T11:47:24;14.60;99.90
28725;DHT22;43472;48.980;9.646;2023-03-31T11:52:38;13.40;99.90
28725;DHT22;43472;48.980;9.646;2023-03-31T11:57:45;11.20;99.90
28725;DHT22;43472;48.980;9.646;2023-03-31T12:03:10;10.80;99.90
28725;DHT22;43472;48.980;9.646;2023-03-31T12:13:55;10.50;99.90
28725;DHT22;43472;48.980;9.646;2023-03-31T12:19:13;10.50;99.90
28725;DHT22;43472;48.980;9.646;2023-03-31T12:24:20;10.70;99.90
28725;DHT22;43472;48.980;9.646;2023-03-31T12:29:31;10.80;99.90
28725;DHT22;43472;48.980;9.646;2023-03-31T12:34:41;11.40;99.90
28725;DHT22;43472;48.980;9.646;2023-03-31T12:40:24;11.70;99.90
28725;DHT22;43472;48.980;9.646;2023-03-31T12:45:35;13.00;99.90
28725;DHT22;43472;48.980;9.646;2023-03-31T12:50:54;12.90;99.90
28725;DHT22;43472;48.980;9.646;2023-03-31T12:55:58;14.00;99.90
28725;DHT22;43472;48.980;9.646;2023-03-31T13:01:02;14.40;99.90
28725;DHT22;43472;48.980;9.646;2023-03-31T13:16:39;14.70;99.90
28725;DHT22;43472;48.980;9.646;2023-03-31T13:21:55;14.60;99.90
28725;DHT22;43472;48.980;9.646;2023-03-31T13:27:33;14.70;99.90
28725;DHT22;43472;48.980;9.646;2023-03-31T13:32:36;15.50;99.90
28725;DHT22;43472;48.980;9.646;2023-03-31T13:37:56;14.70;99.90
28725;DHT22;43472;48.980;9.646;2023-03-31T14:05:11;13.30;99.90
28725;DHT22;43472;48.980;9.646;2023-03-31T14:10:23;13.40;99.90
28725;DHT22;43472;48.980;9.646;2023-03-31T14:15:28;14.00;99.90
28725;DHT22;43472;48.980;9.646;2023-03-31T14:20:33;14.00;99.90
28725;DHT22;43472;48.980;9.646;2023-03-31T14:25:45;13.10;99.90
28725;DHT22;43472;48.980;9.646;2023-03-31T14:31:00;12.60;99.90
28725;DHT22;43472;48.980;9.646;2023-03-31T14:36:25;12.60;99.90
28725;DHT22;43472;48.980;9.646;2023-03-31T14:41:30;12.70;99.90
28725;DHT22;43472;48.980;9.646;2023-03-31T14:46:37;13.20;99.90
28725;DHT22;43472;48.980;9.646;2023-03-31T14:51:42;13.80;99.90
28725;DHT22;43472;48.980;9.646;2023-03-31T14:56:54;13.50;99.90
28725;DHT22;43472;48.980;9.646;2023-03-31T15:02:01;13.70;99.90
28725;DHT22;43472;48.980;9.646;2023-03-31T15:07:05;13.50;99.90
28725;DHT22;43472;48.980;9.646;2023-03-31T15:12:11;13.90;99.90
28725;DHT22;43472;48.980;9.646;2023-03-31T15:17:35;13.80;99.90
28725;DHT22;43472;48.980;9.646;2023-03-31T15:22:39;14.10;99.90
28725;DHT22;43472;48.980;9.646;2023-03-31T15:27:48;14.30;99.90
28725;DHT22;43472;48.980;9.646;2023-03-31T15:32:53;13.60;99.90
28725;DHT22;43472;48.980;9.646;2023-03-31T15:38:13;13.60;99.90
28725;DHT22;43472;48.980;9.646;2023-03-31T15:43:31;13.00;99.90
28725;DHT22;43472;48.980;9.646;2023-03-31T15:48:52;13.00;99.90
28725;DHT22;43472;48.980;9.646;2023-03-31T15:53:54;13.10;99.90
28725;DHT22;43472;48.980;9.646;2023-03-31T15:58:58;13.00;99.90
28725;DHT22;43472;48.980;9.646;2023-03-31T16:04:04;13.00;99.90
28725;DHT22;43472;48.980;9.646;2023-03-31T16:09:11;12.70;99.90
28725;DHT22;43472;48.980;9.646;2023-03-31T16:14:31;12.80;99.90
28725;DHT22;43472;48.980;9.646;2023-03-31T16:19:57;12.60;99.90
28725;DHT22;43472;48.980;9.646;2023-03-31T16:25:01;12.70;99.90
28725;DHT22;43472;48.980;9.646;2023-03-31T16:30:17;12.60;99.90
28725;DHT22;43472;48.980;9.646;2023-03-31T16:35:19;12.50;99.90
28725;DHT22;43472;48.980;9.646;2023-03-31T16:40:21;12.50;99.90
28725;DHT22;43472;48.980;9.646;2023-03-31T16:45:23;12.40;99.90
28725;DHT22;43472;48.980;9.646;2023-03-31T16:50:25;12.30;99.90
28725;DHT22;43472;48.980;9.646;2023-03-31T16:55:28;12.40;99.90
28725;DHT22;43472;48.980;9.646;2023-03-31T17:00:34;12.30;99.90
28725;DHT22;43472;48.980;9.646;2023-03-31T17:05:38;12.50;99.90
28725;DHT22;43472;48.980;9.646;2023-03-31T17:10:41;12.20;99.90
28725;DHT22;43472;48.980;9.646;2023-03-31T17:15:42;12.10;99.90
28725;DHT22;43472;48.980;9.646;2023-03-31T17:20:45;12.10;99.90
28725;DHT22;43472;48.980;9.646;2023-03-31T17:25:48;11.90;99.90
28725;DHT22;43472;48.980;9.646;2023-03-31T17:30:50;11.80;99.90
28725;DHT22;43472;48.980;9.646;2023-03-31T17:35:55;11.70;99.90
28725;DHT22;43472;48.980;9.646;2023-03-31T17:41:03;11.80;99.90
28725;DHT22;43472;48.980;9.646;2023-03-31T17:46:09;11.80;99.90
28725;DHT22;43472;48.980;9.646;2023-03-31T17:51:16;11.70;99.90
28725;DHT22;43472;48.980;9.646;2023-03-31T17:56:18;12.20;99.90
28725;DHT22;43472;48.980;9.646;2023-03-31T18:01:20;11.30;99.90
28725;DHT22;43472;48.980;9.646;2023-03-31T18:06:22;11.40;99.90
28725;DHT22;43472;48.980;9.646;2023-03-31T18:11:25;11.40;99.90
28725;DHT22;43472;48.980;9.646;2023-03-31T18:16:29;11.50;99.90
28725;DHT22;43472;48.980;9.646;2023-03-31T18:21:31;11.40;99.90
28725;DHT22;43472;48.980;9.646;2023-03-31T18:26:36;11.00;99.90
28725;DHT22;43472;48.980;9.646;2023-03-31T18:31:38;10.60;99.90
28725;DHT22;43472;48.980;9.646;2023-03-31T18:36:40;10.70;99.90
28725;DHT22;43472;48.980;9.646;2023-03-31T18:41:46;12.60;99.90
28725;DHT22;43472;48.980;9.646;2023-03-31T18:46:49;10.70;99.90
28725;DHT22;43472;48.980;9.646;2023-03-31T18:51:52;10.70;99.90
28725;DHT22;43472;48.980;9.646;2023-03-31T18:56:54;10.40;99.90
28725;DHT22;43472;48.980;9.646;2023-03-31T19:01:57;10.60;99.90
28725;DHT22;43472;48.980;9.646;2023-03-31T19:06:59;10.50;99.90
28725;DHT22;43472;48.980;9.646;2023-03-31T19:12:01;10.70;99.90
28725;DHT22;43472;48.980;9.646;2023-03-31T19:17:03;10.70;99.90
28725;DHT22;43472;48.980;9.646;2023-03-31T19:22:05;10.70;99.90
28725;DHT22;43472;48.980;9.646;2023-03-31T19:27:09;10.70;99.90
28725;DHT22;43472;48.980;9.646;2023-03-31T19:32:12;10.60;99.90
28725;DHT22;43472;48.980;9.646;2023-03-31T19:37:14;10.40;99.90
28725;DHT22;43472;48.980;9.646;2023-03-31T19:42:16;10.40;99.90
28725;DHT22;43472;48.980;9.646;2023-03-31T19:47:18;10.40;99.90
28725;DHT22;43472;48.980;9.646;2023-03-31T19:52:20;10.30;99.90
28725;DHT22;43472;48.980;9.646;2023-03-31T19:57:22;10.30;99.90
28725;DHT22;43472;48.980;9.646;2023-03-31T20:02:25;10.60;99.90
28725;DHT22;43472;48.980;9.646;2023-03-31T20:07:27;10.50;99.90
28725;DHT22;43472;48.980;9.646;2023-03-31T20:12:30;10.50;99.90
28725;DHT22;43472;48.980;9.646;2023-03-31T20:17:32;10.60;99.90
28725;DHT22;43472;48.980;9.646;2023-03-31T20:22:34;11.50;99.90
28725;DHT22;43472;48.980;9.646;2023-03-31T20:27:36;10.70;99.90
28725;DHT22;43472;48.980;9.646;2023-03-31T20:32:39;10.50;99.90
28725;DHT22;43472;48.980;9.646;2023-03-31T20:37:40;10.40;99.90
28725;DHT22;43472;48.980;9.646;2023-03-31T20:42:43;10.60;99.90
28725;DHT22;43472;48.980;9.646;2023-03-31T20:47:44;10.60;99.90
28725;DHT22;43472;48.980;9.646;2023-03-31T20:52:47;10.50;99.90
28725;DHT22;43472;48.980;9.646;2023-03-31T20:57:49;10.50;99.90
28725;DHT22;43472;48.980;9.646;2023-03-31T21:02:51;10.40;99.90
28725;DHT22;43472;48.980;9.646;2023-03-31T21:07:53;10.40;99.90
28725;DHT22;43472;48.980;9.646;2023-03-31T21:12:57;10.60;99.90
28725;DHT22;43472;48.980;9.646;2023-03-31T21:17:59;10.60;99.90
28725;DHT22;43472;48.980;9.646;2023-03-31T21:23:01;10.50;99.90
28725;DHT22;43472;48.980;9.646;2023-03-31T21:28:03;10.50;99.90
28725;DHT22;43472;48.980;9.646;2023-03-31T21:38:07;10.40;99.90
28725;DHT22;43472;48.980;9.646;2023-03-31T21:43:09;10.40;99.90
28725;DHT22;43472;48.980;9.646;2023-03-31T21:48:11;10.30;99.90
28725;DHT22;43472;48.980;9.646;2023-03-31T21:53:13;10.50;99.90
28725;DHT22;43472;48.980;9.646;2023-03-31T21:58:15;10.50;99.90
28725;DHT22;43472;48.980;9.646;2023-03-31T22:03:21;10.60;99.90
28725;DHT22;43472;48.980;9.646;2023-03-31T22:08:28;10.40;99.90
28725;DHT22;43472;48.980;9.646;2023-03-31T22:13:32;10.50;99.90
28725;DHT22;43472;48.980;9.646;2023-03-31T22:18:34;10.50;99.90
28725;DHT22;43472;48.980;9.646;2023-03-31T22:23:36;10.50;99.90
28725;DHT22;43472;48.980;9.646;2023-03-31T22:28:38;10.40;99.90
28725;DHT22;43472;48.980;9.646;2023-03-31T22:33:40;10.70;99.90
28725;DHT22;43472;48.980;9.646;2023-03-31T22:38:42;10.40;99.90
28725;DHT22;43472;48.980;9.646;2023-03-31T22:43:44;10.10;99.90
28725;DHT22;43472;48.980;9.646;2023-03-31T22:48:49;10.30;99.90
28725;DHT22;43472;48.980;9.646;2023-03-31T22:53:53;10.20;99.90
28725;DHT22;43472;48.980;9.646;2023-03-31T22:58:55;10.40;99.90
28725;DHT22;43472;48.980;9.646;2023-03-31T23:03:58;10.10;99.90
28725;DHT22;43472;48.980;9.646;2023-03-31T23:09:01;10.10;99.90
28725;DHT22;43472;48.980;9.646;2023-03-31T23:14:04;10.20;99.90
28725;DHT22;43472;48.980;9.646;2023-03-31T23:19:07;10.20;99.90
28725;DHT22;43472;48.980;9.646;2023-03-31T23:24:09;11.80;99.90
28725;DHT22;43472;48.980;9.646;2023-03-31T23:29:11;10.20;99.90
28725;DHT22;43472;48.980;9.646;2023-03-31T23:34:13;10.30;99.90
28725;DHT22;43472;48.980;9.646;2023-03-31T23:39:15;11.60;99.90
28725;DHT22;43472;48.980;9.646;2023-03-31T23:44:18;10.40;99.90
28725;DHT22;43472;48.980;9.646;2023-03-31T23:49:21;10.30;99.90
28725;DHT22;43472;48.980;9.646;2023-03-31T23:54:23;10.30;99.90
28725;DHT22;43472;48.980;9.646;2023-03-31T23:59:25;10.20;99.90
